createdAt,value
2019-05-01T00:00:16.050Z,17.20
2019-05-01T00:03:02.633Z,18.53
2019-05-01T00:05:33.587Z,18.17
2019-05-01T00:08:01.379Z,20.30
2019-05-01T00:10:29.582Z,20.13
2019-05-01T00:12:57.459Z,20.70
2019-05-01T00:15:28.382Z,20.33
2019-05-01T00:17:55.943Z,19.70
2019-05-01T00:20:23.237Z,20.77
2019-05-01T00:22:51.119Z,21.23
2019-05-01T00:25:18.545Z,20.97
2019-05-01T00:27:45.966Z,19.60
2019-05-01T00:30:16.043Z,19.20
2019-05-01T00:32:45.904Z,19.17
2019-05-01T00:35:13.844Z,18.40
2019-05-01T00:37:42.602Z,19.70
2019-05-01T00:40:10.183Z,18.93
2019-05-01T00:42:38.021Z,18.90
2019-05-01T00:45:05.476Z,22.07
2019-05-01T00:47:33.139Z,18.63
2019-05-01T00:50:00.927Z,18.30
2019-05-01T00:52:28.796Z,18.03
2019-05-01T00:55:16.964Z,19.07
2019-05-01T00:57:52.099Z,21.43
2019-05-01T01:00:44.920Z,20.47
2019-05-01T01:03:13.288Z,21.30
2019-05-01T01:05:41.182Z,19.83
2019-05-01T01:08:08.794Z,20.93
2019-05-01T01:10:36.479Z,21.33
2019-05-01T01:13:05.005Z,21.60
2019-05-01T01:15:32.744Z,21.60
2019-05-01T01:18:01.174Z,19.97
2019-05-01T01:20:29.273Z,19.17
2019-05-01T01:22:57.269Z,21.47
2019-05-01T01:25:26.257Z,22.20
2019-05-01T01:27:53.714Z,21.00
2019-05-01T01:30:21.627Z,20.23
2019-05-01T01:32:49.319Z,20.80
2019-05-01T01:35:16.984Z,19.23
2019-05-01T01:37:44.517Z,20.97
2019-05-01T01:40:12.165Z,20.20
2019-05-01T01:42:41.330Z,20.23
2019-05-01T01:45:26.386Z,20.03
2019-05-01T01:48:10.553Z,20.47
2019-05-01T01:50:39.647Z,20.07
2019-05-01T01:53:08.395Z,19.10
2019-05-01T01:55:36.876Z,20.57
2019-05-01T01:58:05.226Z,19.77
2019-05-01T02:00:52.387Z,22.33
2019-05-01T02:03:21.340Z,22.47
2019-05-01T02:05:48.959Z,21.73
2019-05-01T02:08:16.419Z,20.70
2019-05-01T02:10:44.073Z,21.60
2019-05-01T02:13:11.511Z,21.77
2019-05-01T02:15:39.463Z,19.90
2019-05-01T02:18:06.821Z,19.70
2019-05-01T02:20:34.824Z,20.80
2019-05-01T02:23:02.247Z,20.60
2019-05-01T02:25:31.362Z,19.93
2019-05-01T02:28:34.368Z,20.93
2019-05-01T02:31:28.015Z,20.60
2019-05-01T02:33:51.646Z,20.87
2019-05-01T02:36:22.366Z,20.10
2019-05-01T02:38:52.451Z,19.73
2019-05-01T02:41:21.963Z,20.33
2019-05-01T02:43:52.509Z,19.33
2019-05-01T02:46:21.933Z,21.30
2019-05-01T02:48:55.569Z,19.47
2019-05-01T02:51:25.756Z,22.53
2019-05-01T02:53:54.643Z,22.37
2019-05-01T02:56:31.779Z,21.13
2019-05-01T02:59:01.174Z,21.73
2019-05-01T03:01:45.401Z,22.13
2019-05-01T03:03:59.014Z,20.50
2019-05-01T03:06:29.187Z,22.07
2019-05-01T03:08:57.962Z,21.43
2019-05-01T03:11:28.320Z,19.73
2019-05-01T03:13:59.650Z,21.37
2019-05-01T03:16:29.307Z,19.63
2019-05-01T03:18:59.409Z,20.10
2019-05-01T03:21:47.033Z,19.40
2019-05-01T03:24:18.355Z,21.67
2019-05-01T03:26:46.330Z,22.10
2019-05-01T03:29:14.275Z,22.73
2019-05-01T03:31:42.463Z,23.03
2019-05-01T03:34:10.366Z,20.07
2019-05-01T03:36:39.681Z,19.50
2019-05-01T03:39:08.580Z,23.50
2019-05-01T03:41:36.950Z,22.87
2019-05-01T03:44:05.689Z,20.53
2019-05-01T03:46:34.282Z,20.80
2019-05-01T03:49:02.770Z,21.20
2019-05-01T03:51:30.717Z,21.53
2019-05-01T03:53:58.676Z,25.23
2019-05-01T03:56:27.612Z,22.47
2019-05-01T03:58:55.885Z,24.60
2019-05-01T04:01:50.300Z,23.23
2019-05-01T04:04:21.310Z,23.27
2019-05-01T04:06:49.889Z,22.00
2019-05-01T04:09:17.945Z,23.50
2019-05-01T04:11:46.018Z,25.40
2019-05-01T04:14:14.047Z,27.50
2019-05-01T04:16:45.211Z,27.37
2019-05-01T04:19:13.386Z,28.03
2019-05-01T04:21:47.211Z,30.10
2019-05-01T04:24:17.047Z,28.27
2019-05-01T04:26:44.786Z,29.57
2019-05-01T04:29:40.668Z,27.83
2019-05-01T04:32:17.095Z,27.37
2019-05-01T04:34:58.811Z,26.40
2019-05-01T04:37:26.844Z,26.07
2019-05-01T04:39:54.396Z,25.33
2019-05-01T04:42:22.576Z,28.03
2019-05-01T04:44:51.365Z,28.10
2019-05-01T04:47:19.251Z,25.50
2019-05-01T04:49:46.896Z,28.60
2019-05-01T04:52:15.024Z,27.87
2019-05-01T04:54:46.413Z,26.20
2019-05-01T04:57:14.481Z,25.17
2019-05-01T04:59:42.868Z,26.20
2019-05-01T05:02:13.014Z,25.50
2019-05-01T05:04:41.156Z,26.73
2019-05-01T05:07:10.262Z,21.80
2019-05-01T05:09:46.165Z,26.97
2019-05-01T05:12:52.792Z,26.73
2019-05-01T05:15:40.948Z,22.37
2019-05-01T05:18:09.305Z,23.53
2019-05-01T05:20:37.383Z,25.30
2019-05-01T05:23:04.851Z,24.17
2019-05-01T05:25:34.038Z,34.00
2019-05-01T05:28:02.578Z,30.90
2019-05-01T05:30:33.016Z,28.53
2019-05-01T05:33:17.080Z,28.30
2019-05-01T05:35:37.168Z,27.40
2019-05-01T05:38:17.125Z,32.30
2019-05-01T05:40:45.306Z,32.00
2019-05-01T05:43:13.370Z,30.27
2019-05-01T05:45:41.723Z,35.17
2019-05-01T05:48:09.937Z,31.20
2019-05-01T05:50:47.049Z,31.87
2019-05-01T05:53:18.138Z,36.80
2019-05-01T05:55:51.783Z,35.73
2019-05-01T05:58:27.814Z,40.43
2019-05-01T06:01:10.408Z,37.00
2019-05-01T06:04:15.319Z,35.60
2019-05-01T06:07:22.851Z,34.80
2019-05-01T06:10:12.730Z,34.73
2019-05-01T06:12:57.772Z,36.53
2019-05-01T06:15:41.271Z,39.80
2019-05-01T06:18:12.380Z,37.97
2019-05-01T06:21:02.263Z,38.63
2019-05-01T06:23:35.069Z,44.17
2019-05-01T06:26:21.823Z,39.90
2019-05-01T06:28:50.249Z,41.00
2019-05-01T06:31:23.228Z,39.17
2019-05-01T06:33:53.051Z,37.40
2019-05-01T06:36:19.062Z,36.50
2019-05-01T06:38:47.105Z,33.73
2019-05-01T06:41:16.679Z,28.73
2019-05-01T06:44:07.593Z,28.13
2019-05-01T06:46:58.072Z,23.77
2019-05-01T06:49:43.433Z,47.20
2019-05-01T06:52:13.469Z,38.53
2019-05-01T06:54:41.808Z,27.10
2019-05-01T06:57:09.976Z,28.50
2019-05-01T06:59:39.278Z,26.03
2019-05-01T07:02:10.928Z,26.47
2019-05-01T07:04:42.346Z,25.30
2019-05-01T07:07:25.312Z,23.57
2019-05-01T07:09:48.781Z,22.13
2019-05-01T07:12:19.377Z,21.53
2019-05-01T07:14:50.897Z,22.30
2019-05-01T07:17:17.515Z,22.23
2019-05-01T07:20:04.497Z,20.70
2019-05-01T07:22:37.055Z,32.70
2019-05-01T07:25:06.183Z,26.30
2019-05-01T07:27:34.002Z,24.17
2019-05-01T07:30:11.549Z,22.00
2019-05-01T07:32:41.207Z,22.73
2019-05-01T07:35:10.344Z,22.03
2019-05-01T07:37:41.893Z,22.47
2019-05-01T07:40:10.834Z,23.20
2019-05-01T07:42:43.708Z,22.43
2019-05-01T07:45:38.982Z,21.40
2019-05-01T07:48:07.987Z,21.03
2019-05-01T07:50:36.317Z,20.23
2019-05-01T07:53:07.487Z,20.90
2019-05-01T07:55:35.682Z,18.37
2019-05-01T07:58:10.334Z,21.90
2019-05-01T08:01:03.165Z,19.80
2019-05-01T08:03:30.795Z,20.33
2019-05-01T08:05:59.018Z,21.37
2019-05-01T08:08:27.159Z,22.37
2019-05-01T08:10:59.970Z,21.00
2019-05-01T08:13:26.534Z,21.50
2019-05-01T08:15:54.383Z,21.00
2019-05-01T08:18:28.022Z,23.33
2019-05-01T08:21:31.455Z,21.80
2019-05-01T08:23:59.829Z,23.60
2019-05-01T08:26:31.207Z,24.87
2019-05-01T08:29:17.505Z,46.40
2019-05-01T08:31:58.912Z,33.00
2019-05-01T08:34:26.602Z,27.37
2019-05-01T08:36:55.350Z,23.60
2019-05-01T08:39:22.943Z,21.70
2019-05-01T08:41:51.770Z,21.03
2019-05-01T08:44:24.822Z,24.07
2019-05-01T08:47:14.507Z,20.93
2019-05-01T08:49:52.978Z,21.00
2019-05-01T08:52:21.473Z,20.90
2019-05-01T08:54:49.202Z,20.87
2019-05-01T08:57:17.799Z,20.83
2019-05-01T08:59:45.732Z,19.00
2019-05-01T09:02:14.106Z,19.90
2019-05-01T09:04:42.088Z,18.20
2019-05-01T09:07:10.526Z,19.07
2019-05-01T09:09:39.810Z,20.27
2019-05-01T09:12:11.846Z,20.80
2019-05-01T09:14:38.611Z,22.17
2019-05-01T09:17:06.961Z,41.73
2019-05-01T09:19:35.326Z,41.73
2019-05-01T09:22:03.600Z,28.00
2019-05-01T09:24:31.319Z,25.40
2019-05-01T09:27:18.831Z,24.00
2019-05-01T09:29:51.536Z,25.43
2019-05-01T09:32:18.784Z,23.23
2019-05-01T09:34:46.582Z,25.00
2019-05-01T09:37:14.623Z,21.77
2019-05-01T09:39:42.601Z,20.67
2019-05-01T09:42:11.028Z,24.13
2019-05-01T09:44:38.660Z,22.93
2019-05-01T09:47:06.843Z,24.90
2019-05-01T09:49:35.009Z,23.30
2019-05-01T09:52:23.397Z,22.57
2019-05-01T09:54:55.142Z,20.30
2019-05-01T09:57:23.014Z,20.63
2019-05-01T09:59:52.091Z,52.73
2019-05-01T10:02:20.125Z,57.40
2019-05-01T10:04:48.120Z,38.40
2019-05-01T10:07:16.066Z,29.10
2019-05-01T10:09:47.221Z,23.00
2019-05-01T10:12:23.250Z,23.33
2019-05-01T10:14:54.170Z,21.20
2019-05-01T10:17:25.030Z,21.93
2019-05-01T10:19:52.985Z,22.73
2019-05-01T10:22:20.675Z,22.13
2019-05-01T10:24:48.641Z,20.03
2019-05-01T10:27:20.103Z,20.83
2019-05-01T10:30:13.665Z,21.63
2019-05-01T10:32:44.685Z,22.20
2019-05-01T10:35:41.836Z,22.57
2019-05-01T10:38:04.652Z,22.07
2019-05-01T10:40:32.329Z,22.90
2019-05-01T10:43:00.578Z,21.73
2019-05-01T10:45:28.927Z,20.00
2019-05-01T10:47:56.894Z,24.00
2019-05-01T10:50:24.547Z,23.57
2019-05-01T10:52:52.675Z,22.37
2019-05-01T10:55:23.550Z,22.47
2019-05-01T10:57:52.070Z,23.80
2019-05-01T11:00:20.045Z,21.97
2019-05-01T11:02:48.360Z,22.73
2019-05-01T11:05:16.731Z,23.17
2019-05-01T11:07:44.621Z,23.30
2019-05-01T11:10:21.925Z,24.20
2019-05-01T11:12:51.941Z,27.50
2019-05-01T11:15:20.058Z,25.23
2019-05-01T11:17:47.848Z,22.00
2019-05-01T11:20:15.972Z,22.00
2019-05-01T11:22:45.177Z,21.37
2019-05-01T11:25:15.481Z,23.97
2019-05-01T11:27:43.292Z,55.70
2019-05-01T11:30:13.143Z,35.20
2019-05-01T11:32:59.940Z,27.60
2019-05-01T11:35:47.089Z,22.90
2019-05-01T11:38:36.295Z,23.90
2019-05-01T11:41:27.060Z,22.10
2019-05-01T11:43:54.946Z,22.63
2019-05-01T11:46:22.923Z,24.03
2019-05-01T11:48:50.451Z,23.23
2019-05-01T11:51:20.704Z,23.90
2019-05-01T11:53:48.478Z,23.83
2019-05-01T11:56:16.947Z,24.97
2019-05-01T11:58:45.082Z,26.33
2019-05-01T12:01:15.152Z,25.67
2019-05-01T12:03:43.296Z,26.23
2019-05-01T12:06:22.382Z,28.43
2019-05-01T12:08:41.849Z,26.07
2019-05-01T12:11:10.783Z,26.53
2019-05-01T12:13:43.787Z,29.97
2019-05-01T12:16:23.273Z,30.53
2019-05-01T12:18:51.825Z,30.83
2019-05-01T12:21:20.086Z,26.83
2019-05-01T12:23:48.422Z,27.03
2019-05-01T12:26:16.277Z,26.13
2019-05-01T12:28:44.068Z,25.90
2019-05-01T12:31:11.681Z,24.30
2019-05-01T12:33:40.112Z,24.80
2019-05-01T12:36:08.558Z,25.57
2019-05-01T12:38:36.687Z,28.77
2019-05-01T12:41:22.288Z,29.33
2019-05-01T12:43:50.200Z,29.00
2019-05-01T12:46:41.789Z,27.77
2019-05-01T12:49:09.445Z,25.97
2019-05-01T12:51:38.188Z,30.40
2019-05-01T12:54:18.487Z,25.27
2019-05-01T12:56:50.092Z,26.90
2019-05-01T12:59:17.819Z,28.80
2019-05-01T13:01:45.818Z,26.27
2019-05-01T13:04:13.439Z,27.40
2019-05-01T13:06:49.238Z,25.00
2019-05-01T13:09:11.319Z,29.23
2019-05-01T13:11:39.134Z,29.07
2019-05-01T13:14:07.561Z,29.27
2019-05-01T13:16:35.914Z,26.53
2019-05-01T13:19:03.625Z,27.10
2019-05-01T13:21:31.598Z,24.43
2019-05-01T13:23:59.516Z,27.67
2019-05-01T13:26:39.177Z,25.27
2019-05-01T13:29:32.807Z,27.70
2019-05-01T13:32:29.127Z,27.47
2019-05-01T13:34:56.837Z,29.37
2019-05-01T13:37:25.515Z,27.00
2019-05-01T13:39:52.935Z,25.33
2019-05-01T13:42:21.143Z,29.40
2019-05-01T13:44:48.712Z,30.57
2019-05-01T13:47:16.959Z,25.83
2019-05-01T13:49:44.663Z,26.90
2019-05-01T13:52:12.879Z,30.10
2019-05-01T13:54:42.406Z,30.17
2019-05-01T13:57:10.777Z,31.60
2019-05-01T13:59:38.973Z,27.97
2019-05-01T14:02:07.518Z,24.90
2019-05-01T14:04:35.955Z,31.83
2019-05-01T14:07:15.764Z,29.00
2019-05-01T14:09:34.035Z,24.60
2019-05-01T14:12:01.567Z,22.13
2019-05-01T14:14:29.931Z,22.30
2019-05-01T14:16:57.644Z,25.20
2019-05-01T14:19:26.123Z,33.90
2019-05-01T14:22:19.693Z,46.33
2019-05-01T14:24:50.295Z,34.53
2019-05-01T14:27:18.377Z,30.77
2019-05-01T14:29:45.892Z,46.47
2019-05-01T14:32:13.501Z,39.90
2019-05-01T14:34:41.895Z,29.70
2019-05-01T14:37:10.501Z,25.30
2019-05-01T14:39:38.336Z,28.60
2019-05-01T14:42:06.946Z,28.67
2019-05-01T14:44:37.250Z,25.07
2019-05-01T14:47:05.375Z,29.67
2019-05-01T14:49:34.479Z,27.97
2019-05-01T14:52:02.243Z,28.47
2019-05-01T14:54:31.526Z,24.60
2019-05-01T14:56:59.037Z,27.50
2019-05-01T14:59:27.079Z,30.50
2019-05-01T15:01:54.751Z,30.37
2019-05-01T15:04:22.913Z,26.27
2019-05-01T15:06:50.819Z,24.03
2019-05-01T15:09:18.609Z,21.53
2019-05-01T15:11:45.975Z,22.30
2019-05-01T15:14:36.120Z,33.20
2019-05-01T15:17:16.959Z,32.73
2019-05-01T15:19:53.222Z,31.97
2019-05-01T15:22:20.829Z,31.20
2019-05-01T15:24:48.695Z,30.33
2019-05-01T15:27:16.639Z,29.00
2019-05-01T15:29:44.519Z,25.33
2019-05-01T15:32:12.262Z,20.50
2019-05-01T15:34:40.382Z,27.30
2019-05-01T15:37:08.160Z,26.97
2019-05-01T15:39:42.137Z,24.13
2019-05-01T15:42:36.287Z,23.47
2019-05-01T15:45:05.615Z,24.80
2019-05-01T15:47:34.350Z,25.33
2019-05-01T15:50:02.296Z,28.67
2019-05-01T15:52:30.446Z,28.60
2019-05-01T15:54:57.999Z,21.90
2019-05-01T15:57:29.047Z,22.70
2019-05-01T15:59:56.761Z,18.20
2019-05-01T16:02:25.086Z,25.37
2019-05-01T16:04:53.760Z,22.90
2019-05-01T16:07:22.699Z,21.43
2019-05-01T16:09:50.371Z,21.30
2019-05-01T16:12:35.419Z,24.50
2019-05-01T16:15:08.179Z,24.37
2019-05-01T16:17:36.303Z,22.67
2019-05-01T16:20:04.889Z,21.30
2019-05-01T16:22:33.064Z,24.90
2019-05-01T16:25:00.841Z,29.70
2019-05-01T16:27:28.745Z,25.40
2019-05-01T16:29:56.718Z,33.33
2019-05-01T16:32:24.454Z,36.23
2019-05-01T16:34:52.383Z,30.77
2019-05-01T16:37:20.371Z,28.73
2019-05-01T16:40:14.127Z,28.20
2019-05-01T16:42:42.403Z,24.17
2019-05-01T16:45:11.937Z,20.30
2019-05-01T16:47:40.313Z,27.73
2019-05-01T16:50:11.279Z,30.70
2019-05-01T16:52:40.459Z,25.20
2019-05-01T16:55:08.992Z,21.47
2019-05-01T16:57:36.610Z,28.70
2019-05-01T17:00:06.324Z,31.00
2019-05-01T17:03:08.615Z,27.63
2019-05-01T17:06:11.005Z,23.30
2019-05-01T17:08:58.182Z,24.07
2019-05-01T17:11:31.272Z,24.40
2019-05-01T17:13:59.353Z,25.40
2019-05-01T17:16:27.713Z,25.17
2019-05-01T17:18:56.043Z,45.77
2019-05-01T17:21:24.480Z,45.20
2019-05-01T17:23:52.389Z,37.10
2019-05-01T17:26:21.018Z,31.27
2019-05-01T17:28:49.068Z,28.57
2019-05-01T17:31:17.187Z,24.77
2019-05-01T17:33:46.102Z,24.40
2019-05-01T17:36:14.403Z,27.10
2019-05-01T17:38:49.667Z,24.83
2019-05-01T17:41:13.953Z,23.53
2019-05-01T17:43:44.722Z,22.70
2019-05-01T17:46:12.270Z,20.60
2019-05-01T17:48:41.786Z,25.17
2019-05-01T17:51:10.551Z,25.60
2019-05-01T17:53:39.151Z,26.17
2019-05-01T17:56:13.559Z,25.60
2019-05-01T17:58:37.956Z,24.07
2019-05-01T18:01:27.610Z,23.20
2019-05-01T18:04:17.002Z,24.20
2019-05-01T18:06:47.909Z,23.13
2019-05-01T18:09:16.469Z,23.03
2019-05-01T18:11:47.223Z,24.03
2019-05-01T18:14:15.323Z,24.00
2019-05-01T18:16:43.349Z,23.30
2019-05-01T18:19:11.490Z,24.60
2019-05-01T18:21:41.635Z,22.00
2019-05-01T18:24:30.767Z,26.67
2019-05-01T18:27:29.886Z,23.87
2019-05-01T18:30:00.903Z,25.70
2019-05-01T18:32:36.437Z,28.77
2019-05-01T18:35:08.877Z,28.17
2019-05-01T18:37:42.883Z,27.33
2019-05-01T18:40:17.891Z,27.70
2019-05-01T18:42:45.836Z,28.00
2019-05-01T18:45:30.586Z,29.40
2019-05-01T18:47:58.248Z,27.20
2019-05-01T18:50:28.624Z,26.83
2019-05-01T18:52:56.978Z,28.40
2019-05-01T18:55:25.918Z,27.50
2019-05-01T18:57:54.048Z,30.03
2019-05-01T19:00:21.919Z,30.50
2019-05-01T19:02:50.089Z,28.63
2019-05-01T19:05:18.224Z,26.70
2019-05-01T19:07:46.069Z,28.30
2019-05-01T19:10:13.874Z,27.07
2019-05-01T19:12:42.153Z,29.60
2019-05-01T19:15:10.282Z,28.47
2019-05-01T19:17:38.720Z,29.33
2019-05-01T19:20:07.089Z,28.13
2019-05-01T19:22:34.996Z,28.90
2019-05-01T19:25:03.148Z,30.10
2019-05-01T19:27:31.229Z,32.37
2019-05-01T19:29:59.493Z,31.80
2019-05-01T19:32:29.069Z,32.33
2019-05-01T19:34:57.815Z,31.97
2019-05-01T19:37:28.350Z,34.50
2019-05-01T19:39:55.534Z,34.27
2019-05-01T19:42:23.685Z,31.33
2019-05-01T19:44:56.071Z,29.30
2019-05-01T19:47:21.709Z,29.83
2019-05-01T19:49:49.382Z,62.33
2019-05-01T19:52:17.701Z,48.33
2019-05-01T19:54:46.171Z,38.73
2019-05-01T19:57:13.866Z,34.73
2019-05-01T19:59:41.639Z,32.40
2019-05-01T20:02:11.550Z,31.80
2019-05-01T20:04:39.456Z,29.60
2019-05-01T20:07:10.649Z,29.60
2019-05-01T20:09:36.975Z,30.30
2019-05-01T20:12:05.685Z,31.40
2019-05-01T20:14:33.435Z,31.13
2019-05-01T20:17:04.820Z,33.60
2019-05-01T20:19:30.499Z,31.67
2019-05-01T20:21:58.490Z,33.33
2019-05-01T20:24:26.294Z,35.17
2019-05-01T20:26:54.306Z,35.13
2019-05-01T20:29:22.436Z,34.40
2019-05-01T20:31:51.693Z,34.90
2019-05-01T20:34:19.491Z,34.83
2019-05-01T20:36:47.423Z,35.40
2019-05-01T20:39:14.938Z,37.03
2019-05-01T20:41:42.722Z,36.20
2019-05-01T20:44:10.255Z,35.30
2019-05-01T20:46:38.262Z,37.67
2019-05-01T20:49:06.581Z,35.33
2019-05-01T20:51:34.053Z,38.07
2019-05-01T20:54:01.873Z,39.30
2019-05-01T20:56:37.379Z,36.17
2019-05-01T20:59:04.998Z,37.20
2019-05-01T21:01:32.871Z,38.77
2019-05-01T21:04:14.695Z,38.03
2019-05-01T21:06:45.703Z,42.23
2019-05-01T21:09:17.027Z,40.10
2019-05-01T21:11:47.554Z,40.27
2019-05-01T21:14:22.366Z,44.10
2019-05-01T21:16:45.923Z,43.20
2019-05-01T21:19:13.892Z,41.77
2019-05-01T21:21:42.979Z,41.30
2019-05-01T21:24:10.786Z,41.70
2019-05-01T21:26:38.263Z,44.03
2019-05-01T21:29:05.820Z,44.27
2019-05-01T21:31:34.162Z,44.97
2019-05-01T21:34:04.033Z,47.77
2019-05-01T21:36:31.617Z,45.33
2019-05-01T21:38:59.127Z,42.10
2019-05-01T21:41:26.991Z,43.23
2019-05-01T21:43:54.966Z,40.47
2019-05-01T21:46:22.795Z,40.60
2019-05-01T21:48:50.674Z,41.00
2019-05-01T21:51:18.363Z,43.40
2019-05-01T21:53:46.659Z,37.73
2019-05-01T21:56:14.482Z,40.37
2019-05-01T21:58:42.034Z,38.77
2019-05-01T22:01:10.915Z,38.50
2019-05-01T22:03:38.347Z,36.40
2019-05-01T22:06:10.968Z,33.97
2019-05-01T22:08:39.231Z,35.47
2019-05-01T22:11:06.895Z,37.20
2019-05-01T22:13:34.614Z,32.23
2019-05-01T22:16:18.426Z,32.97
2019-05-01T22:18:55.744Z,33.10
2019-05-01T22:21:29.572Z,35.50
2019-05-01T22:24:16.768Z,33.07
2019-05-01T22:26:50.818Z,34.90
2019-05-01T22:29:20.494Z,34.47
2019-05-01T22:31:57.486Z,32.90
2019-05-01T22:34:48.316Z,31.07
2019-05-01T22:37:16.511Z,33.20
2019-05-01T22:39:46.883Z,31.17
2019-05-01T22:42:14.791Z,31.03
2019-05-01T22:44:42.417Z,30.87
2019-05-01T22:47:15.139Z,33.17
2019-05-01T22:49:40.131Z,37.80
2019-05-01T22:52:07.775Z,35.67
2019-05-01T22:54:35.329Z,33.43
2019-05-01T22:57:03.375Z,32.83
2019-05-01T22:59:31.628Z,34.67
2019-05-01T23:02:18.916Z,32.13
2019-05-01T23:04:48.300Z,36.20
2019-05-01T23:07:18.561Z,36.40
2019-05-01T23:09:46.123Z,37.37
2019-05-01T23:12:14.204Z,35.87
2019-05-01T23:14:41.802Z,35.47
2019-05-01T23:17:21.104Z,38.53
2019-05-01T23:19:48.848Z,39.37
2019-05-01T23:22:17.099Z,39.97
2019-05-01T23:24:44.629Z,38.53
2019-05-01T23:27:12.387Z,37.63
2019-05-01T23:29:39.935Z,39.70
2019-05-01T23:32:07.713Z,35.70
2019-05-01T23:34:35.096Z,35.67
2019-05-01T23:37:02.753Z,35.33
2019-05-01T23:39:39.785Z,37.23
2019-05-01T23:42:01.022Z,38.17
2019-05-01T23:44:28.967Z,36.33
2019-05-01T23:46:56.755Z,33.83
2019-05-01T23:49:24.301Z,34.87
2019-05-01T23:51:52.064Z,34.13
2019-05-01T23:54:19.936Z,34.40
2019-05-01T23:56:48.160Z,33.60
2019-05-01T23:59:16.217Z,32.90
